Terminal Aerodrome Forecast
Issued by NWS

Home | Current Version | Previous Version | Text Only | Print | Product List | Glossary On
Versions: 1 2 3 4 5 6 7 8 9 10 11 12
703
FTPA31 PHFO 210539
TAFHJR
TAF
PHJR 210539Z 2106/2206 02005KT P6SM BKN045
     FM211900 02012G20KT P6SM VCSH SCT020 BKN035=

USA.gov is the U.S. government's official web portal to all federal, state and local government web resources and services.